Time;durP1;ratioP1;P1;durP2;ratioP2;P2;SDS_P1;SDS_P2;PMS_P1;PMS_P2;Temp;Humidity;BMP_temperature;BMP_pressure;BME280_temperature;BME280_humidity;BME280_pressure;Samples;Min_cycle;Max_cycle;Signal;HPM_P1;HPM_P2
2021/09/29 00:01:07;;;;;;;17.67;9.18;;;;;;;15.90;35.78;101121.69;4979596;28;20505;-75
2021/09/29 00:03:33;;;;;;;17.13;8.90;;;;;;;15.96;35.61;101124.56;4963746;28;20034;-74
2021/09/29 00:05:59;;;;;;;19.42;8.90;;;;;;;15.90;36.06;101119.81;4963566;28;20064;-71
2021/09/29 00:08:25;;;;;;;18.45;9.73;;;;;;;16.01;35.96;101122.25;4979643;28;20339;-75
2021/09/29 00:10:51;;;;;;;18.08;9.57;;;;;;;15.94;35.85;101133.75;4978250;28;20052;-74
2021/09/29 00:13:24;;;;;;;17.35;9.38;;;;;;;16.08;35.95;101120.63;4977731;28;20109;-74
2021/09/29 00:15:54;;;;;;;18.98;9.65;;;;;;;16.36;35.65;101127.50;4977227;28;20065;-73
2021/09/29 00:18:21;;;;;;;21.77;9.68;;;;;;;16.10;35.99;101121.31;4992849;28;20736;-73
2021/09/29 00:20:47;;;;;;;19.63;10.32;;;;;;;15.82;36.16;101129.66;4960475;28;20142;-74
2021/09/29 00:23:12;;;;;;;21.13;10.07;;;;;;;15.79;36.24;101121.94;4976555;28;20137;-73
2021/09/29 00:25:38;;;;;;;27.10;10.60;;;;;;;15.85;36.17;101124.81;4976588;28;20101;-73
2021/09/29 00:28:04;;;;;;;16.77;9.18;;;;;;;15.81;36.06;101125.28;4961953;28;20050;-74
2021/09/29 00:30:35;;;;;;;18.77;9.98;;;;;;;15.97;36.14;101131.63;4962945;28;20084;-74
2021/09/29 00:33:02;;;;;;;20.90;10.32;;;;;;;15.74;35.96;101122.41;4948047;28;20138;-70
2021/09/29 00:35:29;;;;;;;18.95;9.25;;;;;;;15.77;36.11;101126.59;4995051;28;20065;-74
2021/09/29 00:37:55;;;;;;;24.80;10.18;;;;;;;15.72;36.18;101126.22;4994961;28;20071;-74
2021/09/29 00:40:21;;;;;;;18.98;9.45;;;;;;;15.77;36.10;101126.59;4978549;28;20569;-74
2021/09/29 00:42:47;;;;;;;22.23;9.57;;;;;;;15.57;36.18;101109.88;4962513;28;20038;-75
2021/09/29 00:45:13;;;;;;;16.95;9.35;;;;;;;15.70;36.08;101123.69;4962452;28;20057;-73
2021/09/29 00:47:39;;;;;;;20.52;9.68;;;;;;;15.68;36.01;101100.75;4978519;28;20505;-74
2021/09/29 00:50:07;;;;;;;19.38;9.45;;;;;;;15.98;35.99;101130.63;4978266;28;20136;-75
2021/09/29 00:52:33;;;;;;;20.88;9.00;;;;;;;15.83;36.06;101124.13;4994487;28;20442;-73
2021/09/29 00:55:00;;;;;;;15.55;9.07;;;;;;;15.73;36.07;101127.91;4994817;28;20042;-75
2021/09/29 00:57:26;;;;;;;22.40;9.20;;;;;;;15.66;36.11;101124.16;4978385;28;20049;-75
2021/09/29 00:59:52;;;;;;;18.17;9.50;;;;;;;15.54;36.32;101128.06;4994674;28;20064;-75
2021/09/29 01:02:19;;;;;;;19.20;9.45;;;;;;;15.87;36.01;101127.31;4978223;28;20041;-75
2021/09/29 01:04:46;;;;;;;22.08;8.60;;;;;;;15.67;36.25;101121.31;4978306;28;20046;-75
2021/09/29 01:07:18;;;;;;;19.23;9.00;;;;;;;15.96;35.65;101094.25;5010786;28;20038;-76
2021/09/29 01:09:51;;;;;;;22.30;8.93;;;;;;;16.00;36.00;101117.06;4994358;28;20053;-73
2021/09/29 01:12:35;;;;;;;23.58;8.43;;;;;;;16.08;35.99;101125.16;4978476;28;20056;-74
2021/09/29 01:15:06;;;;;;;20.83;8.77;;;;;;;15.93;36.13;101124.06;4994536;28;20125;-73
2021/09/29 01:17:34;;;;;;;18.33;9.23;;;;;;;15.87;36.31;101124.66;4978414;28;20046;-75
2021/09/29 01:20:20;;;;;;;21.02;8.88;;;;;;;16.03;36.03;101119.41;4978390;28;20037;-74
2021/09/29 01:23:07;;;;;;;21.60;9.38;;;;;;;15.91;36.17;101104.59;4962007;28;20233;-73
2021/09/29 01:25:57;;;;;;;17.45;9.07;;;;;;;16.10;35.85;101118.63;4978265;28;20090;-74
2021/09/29 01:28:35;;;;;;;15.35;8.52;;;;;;;16.06;35.95;101117.28;5010467;28;20057;-74
2021/09/29 01:31:02;;;;;;;14.55;8.30;;;;;;;15.74;36.26;101117.03;4962075;28;20052;-75
2021/09/29 01:33:30;;;;;;;14.98;8.40;;;;;;;15.81;36.28;101126.13;4977817;28;20065;-75
2021/09/29 01:35:56;;;;;;;18.42;9.02;;;;;;;15.46;36.45;101110.09;4961670;28;20140;-75
2021/09/29 01:38:23;;;;;;;15.15;8.88;;;;;;;15.67;36.45;101113.28;4977864;28;20165;-76
2021/09/29 01:40:49;;;;;;;17.80;8.18;;;;;;;15.43;36.50;101110.41;5010297;28;20056;-74
2021/09/29 01:43:15;;;;;;;16.92;8.38;;;;;;;15.48;36.28;101110.78;4977682;28;20050;-74
2021/09/29 01:45:44;;;;;;;18.20;9.10;;;;;;;15.90;36.09;101114.47;4961579;28;20045;-73
2021/09/29 01:48:10;;;;;;;23.80;9.40;;;;;;;15.58;36.02;101113.34;4977607;28;20422;-74
2021/09/29 01:50:37;;;;;;;17.30;8.68;;;;;;;15.79;35.99;101114.72;4977248;28;20144;-72
2021/09/29 01:53:03;;;;;;;21.40;9.68;;;;;;;15.53;36.01;101113.81;4994214;28;20061;-73
2021/09/29 01:55:29;;;;;;;21.17;9.55;;;;;;;15.68;36.16;101116.81;4961336;28;20052;-74
2021/09/29 01:57:55;;;;;;;16.92;8.80;;;;;;;15.50;36.35;101111.47;5010079;28;20050;-74
2021/09/29 02:00:24;;;;;;;18.13;8.18;;;;;;;15.57;36.14;101115.22;4977371;28;20152;-74
2021/09/29 02:02:55;;;;;;;20.83;9.38;;;;;;;15.51;36.18;101115.84;5010129;28;20100;-74
2021/09/29 02:05:33;;;;;;;20.08;8.73;;;;;;;16.10;35.64;101121.31;4977934;28;20581;-74
2021/09/29 02:08:03;;;;;;;15.63;8.30;;;;;;;15.74;36.00;101100.97;5010132;28;20194;-74
2021/09/29 02:10:29;;;;;;;16.50;8.52;;;;;;;15.59;36.42;101112.38;4977546;28;20046;-74
2021/09/29 02:12:55;;;;;;;20.20;8.80;;;;;;;15.57;36.65;101114.38;4993518;28;20049;-74
2021/09/29 02:15:22;;;;;;;19.13;8.77;;;;;;;15.58;36.56;101116.88;4961147;28;20421;-74
2021/09/29 02:17:48;;;;;;;16.48;9.00;;;;;;;15.68;36.58;101124.84;5009857;28;20045;-74
2021/09/29 02:20:14;;;;;;;17.02;9.68;;;;;;;15.67;36.61;101121.31;5001479;28;20052;-73
2021/09/29 02:22:40;;;;;;;17.80;9.02;;;;;;;15.67;36.66;101118.63;5024143;28;20025;-72
2021/09/29 02:25:09;;;;;;;20.02;9.50;;;;;;;15.81;36.37;101125.28;5002280;28;20050;-72
2021/09/29 02:27:35;;;;;;;20.92;8.93;;;;;;;15.74;36.38;101122.41;5010151;28;20525;-73
2021/09/29 02:30:02;;;;;;;20.85;9.48;;;;;;;15.62;36.61;101120.09;5009732;28;20091;-74
2021/09/29 02:32:28;;;;;;;19.08;9.50;;;;;;;15.52;36.69;101112.16;4961268;28;20041;-74
2021/09/29 02:34:54;;;;;;;21.02;9.18;;;;;;;15.50;37.03;101116.00;4977191;28;20107;-75
2021/09/29 02:37:19;;;;;;;23.98;10.00;;;;;;;15.49;36.94;101116.97;4993387;28;20049;-74
2021/09/29 02:39:45;;;;;;;20.55;10.23;;;;;;;15.49;36.83;101125.00;4961160;28;20133;-74
2021/09/29 02:42:11;;;;;;;20.92;10.02;;;;;;;15.51;36.98;101118.50;4993819;28;20124;-73
2021/09/29 02:44:37;;;;;;;22.38;11.07;;;;;;;15.45;37.05;101124.47;4961544;28;20042;-76
2021/09/29 02:47:03;;;;;;;23.75;10.10;;;;;;;15.49;37.03;101125.84;4961129;28;20041;-74
2021/09/29 02:49:29;;;;;;;29.67;10.60;;;;;;;15.24;37.46;101123.88;4977035;28;20064;-72
2021/09/29 02:51:55;;;;;;;24.05;10.35;;;;;;;15.26;37.55;101127.25;4977334;28;20498;-75
2021/09/29 02:54:21;;;;;;;22.05;10.50;;;;;;;15.37;37.64;101120.84;4993397;28;20042;-74
2021/09/29 02:56:47;;;;;;;15.95;9.90;;;;;;;15.30;37.58;101134.00;4977389;28;20069;-74
2021/09/29 02:59:13;;;;;;;19.75;10.25;;;;;;;15.35;37.36;101134.38;4980453;28;20529;-74
2021/09/29 03:01:40;;;;;;;20.52;9.73;;;;;;;15.67;37.48;101140.06;4996927;28;20526;-73
2021/09/29 03:04:07;;;;;;;20.83;9.60;;;;;;;15.59;37.39;101131.13;5013196;28;20053;-74
2021/09/29 03:06:33;;;;;;;18.17;9.85;;;;;;;15.61;37.29;101134.47;4996741;28;20446;-75
2021/09/29 03:08:59;;;;;;;21.27;10.85;;;;;;;15.46;37.06;101136.88;5012946;28;20053;-74
2021/09/29 03:11:26;;;;;;;18.35;10.55;;;;;;;15.69;37.05;101135.41;4980402;28;20060;-75
2021/09/29 03:13:52;;;;;;;27.10;10.68;;;;;;;15.51;37.29;101142.63;4980489;28;20038;-75
2021/09/29 03:16:18;;;;;;;20.73;11.25;;;;;;;15.52;37.53;101144.28;4996453;28;20045;-76
2021/09/29 03:18:44;;;;;;;24.67;11.70;;;;;;;15.47;37.15;101146.56;4980440;28;20501;-76
2021/09/29 03:21:10;;;;;;;28.85;12.57;;;;;;;15.54;37.41;101142.31;4980391;28;20042;-74
2021/09/29 03:23:36;;;;;;;20.90;11.02;;;;;;;15.67;37.71;101142.75;4979789;28;20049;-74
2021/09/29 03:26:03;;;;;;;25.88;12.55;;;;;;;15.69;37.27;101139.91;4979602;28;20056;-74
2021/09/29 03:28:29;;;;;;;23.30;11.75;;;;;;;15.47;37.32;101145.75;4979418;28;20680;-74
2021/09/29 03:30:55;;;;;;;22.83;11.73;;;;;;;15.56;37.21;101140.28;4979547;28;20226;-74
2021/09/29 03:33:21;;;;;;;24.50;11.77;;;;;;;15.49;37.65;101141.06;4963530;28;20521;-76
2021/09/29 03:35:47;;;;;;;26.55;11.40;;;;;;;15.67;37.40;101148.09;4979792;28;20045;-76
2021/09/29 03:38:13;;;;;;;22.95;10.63;;;;;;;15.52;37.02;101140.75;4996186;28;20057;-75
2021/09/29 03:40:39;;;;;;;23.83;11.75;;;;;;;15.71;37.27;101141.47;4980106;28;20045;-75
2021/09/29 03:43:05;;;;;;;27.13;11.68;;;;;;;15.60;37.10;101141.69;4963651;28;20042;-75
2021/09/29 03:45:31;;;;;;;23.33;11.90;;;;;;;15.54;37.07;101136.94;4995883;28;20108;-74
2021/09/29 03:47:57;;;;;;;24.67;11.68;;;;;;;15.63;37.12;101151.25;4979711;28;20046;-75
2021/09/29 03:50:23;;;;;;;25.10;9.95;;;;;;;15.68;36.92;101155.16;4995080;28;20438;-74
2021/09/29 03:52:49;;;;;;;22.35;11.18;;;;;;;15.70;36.78;101147.78;4963205;28;20046;-75
2021/09/29 03:55:15;;;;;;;23.17;10.48;;;;;;;15.69;37.01;101153.31;4978904;28;20049;-74
2021/09/29 03:57:42;;;;;;;24.40;10.10;;;;;;;15.75;36.79;101150.00;4963480;28;20069;-74
2021/09/29 04:00:10;;;;;;;24.80;10.45;;;;;;;16.08;36.34;101157.31;4963150;28;20105;-75
2021/09/29 04:02:37;;;;;;;19.83;10.10;;;;;;;15.97;36.20;101154.88;5011061;28;20041;-72
2021/09/29 04:05:05;;;;;;;24.52;10.60;;;;;;;16.05;36.25;101171.88;4978993;28;20064;-74
2021/09/29 04:07:31;;;;;;;25.63;10.10;;;;;;;15.83;36.13;101140.22;4994894;28;20045;-74
2021/09/29 04:09:57;;;;;;;23.88;10.23;;;;;;;15.86;36.02;101153.31;5027801;28;20042;-69
2021/09/29 04:12:22;;;;;;;17.80;9.95;;;;;;;15.92;36.14;101163.41;5010904;28;20052;-69
2021/09/29 04:14:49;;;;;;;20.88;10.25;;;;;;;16.16;35.78;101168.94;4994809;28;20046;-70
2021/09/29 04:17:15;;;;;;;24.33;11.02;;;;;;;16.11;35.63;101157.00;5001967;28;20041;-68
2021/09/29 04:19:41;;;;;;;22.63;11.20;;;;;;;16.06;35.49;101154.81;5006741;28;20050;-69
2021/09/29 04:22:10;;;;;;;22.48;10.30;;;;;;;16.35;35.65;101167.88;4993881;28;20046;-67
2021/09/29 04:24:41;;;;;;;27.77;10.57;;;;;;;16.70;35.40;101170.47;5009966;28;20042;-68
2021/09/29 04:27:08;;;;;;;27.83;10.13;;;;;;;16.55;35.48;101172.91;4976113;28;20137;-67
2021/09/29 04:29:35;;;;;;;25.13;10.32;;;;;;;16.56;35.33;101163.00;4964646;28;20041;-68
2021/09/29 04:32:01;;;;;;;29.60;10.50;;;;;;;16.49;35.16;101170.88;5009906;28;20149;-68
2021/09/29 04:34:27;;;;;;;25.15;10.98;;;;;;;16.44;34.97;101146.38;5010819;28;20053;-68
2021/09/29 04:36:53;;;;;;;23.17;9.05;;;;;;;16.68;34.91;101170.63;5012579;28;20052;-77
2021/09/29 04:39:18;;;;;;;19.70;10.15;;;;;;;16.72;34.79;101172.00;4976765;28;20042;-68
2021/09/29 04:41:44;;;;;;;25.75;9.75;;;;;;;17.01;34.38;101173.44;4977828;28;20057;-66
2021/09/29 04:44:10;;;;;;;22.95;9.40;;;;;;;17.03;33.99;101168.78;5011911;28;20042;-78
2021/09/29 04:46:36;;;;;;;20.83;10.52;;;;;;;17.06;33.68;101163.06;5010075;28;20096;-70
2021/09/29 04:49:02;;;;;;;20.85;10.10;;;;;;;17.24;33.68;101163.78;4989414;28;20045;-69
2021/09/29 04:51:28;;;;;;;18.92;9.07;;;;;;;17.38;34.47;101164.00;5044728;28;20389;-68
2021/09/29 04:53:54;;;;;;;21.67;10.88;;;;;;;17.42;33.85;101156.47;5030054;28;20095;-69
2021/09/29 04:56:20;;;;;;;21.25;9.80;;;;;;;17.47;34.08;101162.19;4995592;28;20515;-70
2021/09/29 04:58:46;;;;;;;24.42;10.25;;;;;;;17.58;33.40;101162.75;4997213;28;20045;-69
2021/09/29 05:01:15;;;;;;;22.95;9.13;;;;;;;18.09;32.79;101162.44;5030152;28;20044;-69
2021/09/29 05:03:41;;;;;;;17.95;8.77;;;;;;;17.85;33.04;101167.78;5030237;28;20091;-68
2021/09/29 05:06:07;;;;;;;16.65;8.98;;;;;;;17.93;32.69;101162.41;4980578;28;20037;-69
2021/09/29 05:08:34;;;;;;;19.90;9.32;;;;;;;18.23;32.62;101160.88;4996913;28;20049;-69
2021/09/29 05:11:05;;;;;;;22.77;9.23;;;;;;;18.46;32.39;101167.28;5031145;28;20084;-69
2021/09/29 05:13:32;;;;;;;19.45;8.63;;;;;;;18.27;32.58;101148.75;5028352;28;20569;-68
2021/09/29 05:15:59;;;;;;;22.58;9.27;;;;;;;18.36;32.78;101159.34;5027510;28;20045;-70
2021/09/29 05:18:25;;;;;;;20.73;9.10;;;;;;;18.66;31.87;101154.25;5027266;28;20052;-69
2021/09/29 05:20:51;;;;;;;20.27;8.48;;;;;;;18.97;31.27;101169.47;5027206;28;20045;-70
2021/09/29 05:23:17;;;;;;;18.20;8.52;;;;;;;18.99;31.22;101162.03;5010876;28;20136;-68
2021/09/29 05:25:43;;;;;;;21.15;9.32;;;;;;;18.99;31.05;101166.59;4995509;28;20143;-68
2021/09/29 05:28:12;;;;;;;22.73;10.85;;;;;;;19.49;30.45;101161.63;4981226;28;20156;-69
2021/09/29 05:30:38;;;;;;;27.67;9.57;;;;;;;19.13;30.75;101165.81;5046347;28;20095;-68
2021/09/29 05:33:03;;;;;;;22.38;9.45;;;;;;;19.27;30.40;101157.00;5013191;28;20042;-68
2021/09/29 05:35:29;;;;;;;25.02;9.85;;;;;;;19.48;30.24;101173.44;4996572;28;20405;-69
2021/09/29 05:37:55;;;;;;;20.10;8.65;;;;;;;19.65;29.82;101173.13;5030675;28;20497;-68
2021/09/29 05:40:21;;;;;;;22.35;9.02;;;;;;;19.63;29.71;101174.34;4996532;28;20049;-68
2021/09/29 05:42:47;;;;;;;20.52;8.70;;;;;;;19.84;29.23;101172.66;5029505;28;20110;-68
2021/09/29 05:45:12;;;;;;;16.83;7.93;;;;;;;19.97;28.96;101180.16;5012557;28;20099;-69
2021/09/29 05:47:38;;;;;;;23.38;7.95;;;;;;;20.06;28.72;101179.88;5012770;28;20041;-69
2021/09/29 05:50:06;;;;;;;14.48;7.47;;;;;;;20.34;28.77;101182.88;5029226;28;20103;-68
2021/09/29 05:52:32;;;;;;;15.40;7.50;;;;;;;20.15;28.78;101171.75;5029354;28;20049;-70
2021/09/29 05:54:58;;;;;;;15.63;7.82;;;;;;;20.34;28.53;101180.19;5012773;28;20045;-69
2021/09/29 05:57:24;;;;;;;25.30;7.75;;;;;;;20.44;28.06;101182.59;4996156;28;20497;-69
2021/09/29 05:59:50;;;;;;;17.98;7.65;;;;;;;20.53;28.17;101170.69;5013257;28;20064;-68
2021/09/29 06:02:17;;;;;;;15.65;7.72;;;;;;;20.92;27.35;101165.84;5029121;28;20056;-68
2021/09/29 06:04:43;;;;;;;14.73;7.60;;;;;;;20.88;27.14;101181.59;4996072;28;20513;-69
2021/09/29 06:07:15;;;;;;;15.88;7.30;;;;;;;20.91;27.29;101180.38;5029347;28;20048;-70
2021/09/29 06:09:41;;;;;;;18.08;8.50;;;;;;;21.05;27.55;101177.69;5030747;28;20136;-69
2021/09/29 06:12:08;;;;;;;14.77;8.23;;;;;;;21.27;26.83;101159.66;5029204;28;20516;-69
2021/09/29 06:14:34;;;;;;;15.75;8.48;;;;;;;21.29;26.69;101182.78;5029034;28;20266;-69
2021/09/29 06:17:20;;;;;;;19.08;7.72;;;;;;;21.78;26.25;101185.66;5014480;28;20069;-68
2021/09/29 06:19:47;;;;;;;19.83;7.68;;;;;;;21.85;26.06;101186.53;4998489;28;20085;-68
2021/09/29 06:22:13;;;;;;;13.88;7.80;;;;;;;21.65;26.19;101170.09;5029112;28;20038;-69
2021/09/29 06:24:39;;;;;;;22.42;8.23;;;;;;;21.98;25.78;101186.66;5012246;28;20049;-68
2021/09/29 06:27:05;;;;;;;16.33;7.22;;;;;;;22.16;25.69;101178.91;5028608;28;20045;-70
2021/09/29 06:29:31;;;;;;;18.33;8.32;;;;;;;22.14;25.42;101174.75;5017131;28;20137;-69
2021/09/29 06:31:57;;;;;;;18.25;7.65;;;;;;;22.26;25.13;101178.59;4980397;28;20132;-69
2021/09/29 06:34:24;;;;;;;18.50;7.25;;;;;;;22.43;24.94;101180.81;5032756;28;20152;-68
2021/09/29 06:36:49;;;;;;;16.45;7.85;;;;;;;22.49;25.05;101173.75;4999823;28;20166;-68
2021/09/29 06:39:16;;;;;;;15.90;6.72;;;;;;;22.66;24.53;101180.56;5032259;28;20038;-68
2021/09/29 06:41:41;;;;;;;14.00;7.20;;;;;;;22.90;24.79;101183.63;5016297;28;20144;-68
2021/09/29 06:44:11;;;;;;;24.40;7.65;;;;;;;23.16;23.76;101178.34;5016182;28;20413;-69
2021/09/29 06:46:37;;;;;;;18.98;7.00;;;;;;;23.14;23.90;101174.16;5015443;28;20046;-72
2021/09/29 06:49:03;;;;;;;16.80;6.95;;;;;;;23.37;24.01;101182.00;4999602;28;20045;-80
2021/09/29 06:51:29;;;;;;;13.77;7.03;;;;;;;23.46;23.43;101181.59;4999124;28;20563;-70
2021/09/29 06:53:55;;;;;;;17.13;6.82;;;;;;;23.74;23.19;101178.75;5015660;28;20056;-69
2021/09/29 06:56:21;;;;;;;18.30;7.50;;;;;;;23.83;23.05;101175.66;5015389;28;20049;-69
2021/09/29 06:58:47;;;;;;;16.42;6.93;;;;;;;24.18;22.55;101196.16;4999479;28;20132;-72
2021/09/29 07:01:13;;;;;;;16.33;6.78;;;;;;;24.65;22.64;101186.91;5032191;28;20497;-70
2021/09/29 07:03:39;;;;;;;17.67;6.97;;;;;;;24.81;22.03;101187.34;5015638;28;20059;-69
2021/09/29 07:06:05;;;;;;;15.25;6.50;;;;;;;25.23;21.43;101185.97;5031565;28;20049;-69
2021/09/29 07:08:31;;;;;;;12.70;6.07;;;;;;;25.38;21.21;101169.38;5015804;28;20073;-67
2021/09/29 07:10:57;;;;;;;14.98;5.85;;;;;;;26.59;19.94;101182.50;5015335;28;20084;-70
2021/09/29 07:13:23;;;;;;;12.00;5.57;;;;;;;28.99;17.44;101185.50;5015355;28;20053;-69
2021/09/29 07:15:49;;;;;;;14.10;5.65;;;;;;;31.97;14.55;101191.72;4983099;28;20602;-69
2021/09/29 07:18:16;;;;;;;15.20;5.45;;;;;;;34.68;12.27;101189.25;4998498;28;20535;-70
2021/09/29 07:20:42;;;;;;;13.73;5.25;;;;;;;37.18;10.16;101181.97;4999342;28;20049;-70
2021/09/29 07:23:08;;;;;;;13.98;5.30;;;;;;;39.41;8.59;101177.91;5032848;28;20132;-70
2021/09/29 07:25:35;;;;;;;13.80;5.40;;;;;;;41.07;7.60;101180.88;5031422;28;20041;-70
2021/09/29 07:28:01;;;;;;;14.40;5.10;;;;;;;42.70;6.54;101184.53;4998587;28;20405;-70
2021/09/29 07:30:28;;;;;;;13.45;4.78;;;;;;;43.67;5.82;101174.97;4982380;28;20045;-70
2021/09/29 07:32:55;;;;;;;14.73;5.18;;;;;;;44.67;5.73;101168.69;5015022;28;20144;-70
2021/09/29 07:35:21;;;;;;;12.63;4.85;;;;;;;45.31;4.96;101170.81;5031505;28;20502;-70
2021/09/29 07:37:47;;;;;;;13.02;4.30;;;;;;;45.90;4.91;101172.66;5031593;28;20047;-70
2021/09/29 07:40:13;;;;;;;11.65;4.25;;;;;;;46.40;4.43;101166.44;5015140;28;20591;-70
2021/09/29 07:42:39;;;;;;;13.43;4.03;;;;;;;46.67;3.92;101161.97;5014717;28;20051;-70
2021/09/29 07:45:07;;;;;;;11.18;3.80;;;;;;;47.04;3.71;101164.09;5028713;28;20041;-70
2021/09/29 07:47:33;;;;;;;8.88;4.13;;;;;;;47.35;3.50;101164.06;5010995;28;20073;-70
2021/09/29 07:49:59;;;;;;;8.15;3.13;;;;;;;47.78;3.20;101148.91;4978760;28;20065;-70
2021/09/29 07:52:26;;;;;;;16.60;3.75;;;;;;;48.11;3.04;101142.75;5011514;28;20569;-71
2021/09/29 07:54:53;;;;;;;13.18;3.42;;;;;;;48.52;2.81;101150.38;4978692;28;20041;-71
2021/09/29 07:57:19;;;;;;;17.48;3.20;;;;;;;49.22;2.75;101151.56;5010866;28;20041;-71
2021/09/29 07:59:45;;;;;;;12.13;3.70;;;;;;;49.48;2.54;101148.72;4978920;28;20410;-70
2021/09/29 08:02:11;;;;;;;6.75;2.90;;;;;;;48.96;2.83;101137.44;4995160;28;20057;-70
2021/09/29 08:04:37;;;;;;;12.52;3.15;;;;;;;48.27;2.51;101144.28;4994100;28;20046;-70
2021/09/29 08:07:03;;;;;;;11.68;2.88;;;;;;;47.28;2.99;101140.56;5027258;28;20049;-71
2021/09/29 08:09:29;;;;;;;14.20;3.20;;;;;;;46.93;3.46;101151.81;4994624;28;20045;-73
2021/09/29 08:11:55;;;;;;;13.65;3.80;;;;;;;47.18;3.38;101147.56;5011172;28;20042;-71
2021/09/29 08:14:22;;;;;;;11.18;3.70;;;;;;;47.87;2.98;101134.59;4994489;28;20053;-70
2021/09/29 08:16:48;;;;;;;10.18;3.13;;;;;;;48.64;2.25;101141.75;5027380;28;20042;-71
2021/09/29 08:19:14;;;;;;;7.82;3.05;;;;;;;49.13;2.14;101136.91;4994654;28;20042;-70
2021/09/29 08:21:41;;;;;;;6.35;2.88;;;;;;;49.42;2.14;101138.94;5011012;28;20058;-71
2021/09/29 08:24:10;;;;;;;7.85;3.00;;;;;;;49.83;2.06;101132.22;4994281;28;20522;-71
2021/09/29 08:34:48;;;;;;;8.20;2.72;;;;;;;51.71;1.43;101139.03;5024910;28;20046;-70
2021/09/29 08:42:59;;;;;;;13.50;3.72;;;;;;;51.31;1.53;101127.88;5011687;28;20073;-71
2021/09/29 08:45:16;;;;;;;9.95;2.95;;;;;;;51.12;1.17;101128.16;4994575;28;20510;-72
2021/09/29 08:47:53;;;;;;;12.00;2.90;;;;;;;51.42;1.22;101118.25;5010053;28;20069;-71
2021/09/29 08:53:08;;;;;;;11.57;2.83;;;;;;;48.96;2.40;101112.03;5010316;28;20408;-71
2021/09/29 09:17:26;;;;;;;6.10;2.20;;;;;;;48.17;2.72;101084.88;5009718;28;20046;-69
2021/09/29 09:19:52;;;;;;;9.60;2.80;;;;;;;48.11;2.32;101094.81;5010154;28;20065;-69
2021/09/29 09:22:18;;;;;;;6.93;2.50;;;;;;;47.90;2.60;101092.41;4993450;28;20100;-72
2021/09/29 09:24:52;;;;;;;9.43;3.20;;;;;;;48.35;2.36;101094.50;4993389;28;20042;-69
2021/09/29 09:27:18;;;;;;;9.55;3.20;;;;;;;48.89;2.44;101098.63;4976335;28;20041;-69
2021/09/29 09:29:46;;;;;;;7.65;2.75;;;;;;;49.53;1.82;101089.06;4993647;28;20477;-69
2021/09/29 09:32:14;;;;;;;5.43;2.60;;;;;;;50.09;1.46;101103.03;5010066;28;20096;-70
2021/09/29 09:34:41;;;;;;;5.37;2.80;;;;;;;50.36;1.48;101094.00;5009892;28;20042;-70
2021/09/29 09:37:11;;;;;;;8.60;2.72;;;;;;;50.27;1.85;101087.06;5009477;28;20064;-70
2021/09/29 09:39:38;;;;;;;4.80;3.08;;;;;;;49.23;2.30;101078.94;5010371;28;20041;-70
2021/09/29 09:42:06;;;;;;;8.60;3.03;;;;;;;48.84;2.16;101079.19;5009497;28;20510;-70
2021/09/29 09:44:34;;;;;;;13.57;3.03;;;;;;;48.45;2.31;101079.75;5010724;28;20041;-70
2021/09/29 09:47:07;;;;;;;7.72;2.72;;;;;;;48.68;1.81;101069.25;4976808;28;20045;-71
2021/09/29 09:49:50;;;;;;;8.77;3.40;;;;;;;48.61;2.15;101069.13;4992240;28;20050;-71
2021/09/29 09:52:33;;;;;;;7.45;2.55;;;;;;;48.35;1.99;101077.56;4992537;28;20046;-70
2021/09/29 09:55:08;;;;;;;11.65;2.60;;;;;;;48.71;2.41;101079.78;4993259;28;20053;-71
2021/09/29 09:57:36;;;;;;;4.75;2.47;;;;;;;48.56;2.30;101066.63;4993115;28;20072;-71
2021/09/29 10:00:05;;;;;;;8.55;2.75;;;;;;;48.74;2.52;101065.75;5009234;28;20077;-70
2021/09/29 10:02:47;;;;;;;5.13;2.60;;;;;;;48.55;2.04;101064.97;5010743;28;20053;-70
2021/09/29 10:05:18;;;;;;;5.70;2.22;;;;;;;48.29;2.24;101062.13;4993327;28;20137;-69
2021/09/29 10:07:45;;;;;;;5.40;2.30;;;;;;;47.70;2.55;101053.38;5012731;28;20046;-72
2021/09/29 10:22:48;;;;;;;8.27;3.00;;;;;;;48.46;2.58;101067.25;4993916;28;20049;-75
2021/09/29 10:28:46;;;;;;;8.82;3.40;;;;;;;46.53;2.98;101061.19;5013042;28;20050;-75
2021/09/29 10:34:05;;;;;;;7.03;2.65;;;;;;;46.58;3.04;101054.47;4999445;28;20049;-75
2021/09/29 10:44:31;;;;;;;16.42;3.00;;;;;;;47.63;2.78;101049.22;4996675;28;20045;-75
2021/09/29 10:47:19;;;;;;;11.02;3.33;;;;;;;47.79;2.62;101057.59;5028410;28;20053;-76
2021/09/29 11:02:52;;;;;;;6.78;2.97;;;;;;;46.96;2.70;101048.97;5010317;28;20049;-76
2021/09/29 11:27:24;;;;;;;6.68;2.70;;;;;;;46.44;3.04;101031.59;4982374;28;20056;-75
2021/09/29 11:29:54;;;;;;;5.03;2.97;;;;;;;43.82;4.32;101021.16;4977927;28;20038;-68
2021/09/29 11:34:50;;;;;;;;;;;;;;;40.81;5.61;101018.31;5026330;28;20061;-72
2021/09/29 12:10:28;;;;;;;12.63;3.90;;;;;;;29.76;14.15;100982.25;5004636;28;20509;-69
2021/09/29 12:12:55;;;;;;;28.83;4.38;;;;;;;29.55;14.51;100999.41;5003136;28;20128;-69
2021/09/29 12:15:21;;;;;;;14.75;4.38;;;;;;;29.12;14.95;100994.53;5023879;28;20110;-68
2021/09/29 12:17:50;;;;;;;14.10;4.28;;;;;;;28.67;15.08;100993.66;4984765;28;20034;-67
2021/09/29 12:22:53;;;;;;;15.13;4.20;;;;;;;28.27;15.51;100998.25;5007930;28;20037;-79
2021/09/29 12:25:45;;;;;;;6.57;4.00;;;;;;;27.98;15.62;100982.88;5009163;28;20042;-68
2021/09/29 12:28:34;;;;;;;21.80;4.95;;;;;;;27.71;16.14;100996.13;5020635;28;20052;-68
2021/09/29 12:34:17;;;;;;;12.98;4.32;;;;;;;27.32;16.64;100987.78;5002998;28;20099;-67
2021/09/29 12:36:42;;;;;;;9.75;4.25;;;;;;;27.33;16.96;100989.44;5023455;28;20034;-68
2021/09/29 12:39:19;;;;;;;9.02;4.30;;;;;;;27.42;17.09;100988.88;5019384;28;20044;-67
2021/09/29 12:41:50;;;;;;;11.90;4.45;;;;;;;27.17;17.51;100980.00;5018245;28;20072;-67
2021/09/29 12:44:18;;;;;;;11.48;4.80;;;;;;;26.77;17.47;100994.47;5020339;28;20049;-66
2021/09/29 12:47:02;;;;;;;18.55;5.03;;;;;;;26.81;17.58;100985.59;5020261;28;20191;-67
2021/09/29 12:49:28;;;;;;;9.43;4.15;;;;;;;26.39;17.87;100972.88;5019284;28;20048;-67
2021/09/29 12:52:10;;;;;;;21.55;4.47;;;;;;;26.25;17.99;100990.44;5014665;28;20033;-67
2021/09/29 12:54:45;;;;;;;10.80;4.38;;;;;;;26.25;18.07;100998.63;4979655;28;20046;-68
2021/09/29 12:57:11;;;;;;;20.35;5.22;;;;;;;25.72;18.65;100984.72;4995424;28;20597;-68
2021/09/29 12:59:36;;;;;;;8.82;4.28;;;;;;;25.55;19.19;100997.22;4961796;28;20129;-72
2021/09/29 13:02:03;;;;;;;22.88;4.45;;;;;;;25.46;19.08;100989.56;4992340;28;20141;-71
2021/09/29 13:04:28;;;;;;;10.60;4.60;;;;;;;25.35;19.13;100987.53;4992475;28;20150;-72
2021/09/29 13:06:55;;;;;;;17.45;4.45;;;;;;;25.18;19.39;100989.09;4994097;28;20050;-71
2021/09/29 13:09:21;;;;;;;12.40;4.80;;;;;;;25.07;19.62;100987.09;4961129;28;20107;-72
2021/09/29 13:11:47;;;;;;;22.27;5.13;;;;;;;24.91;19.70;100983.00;5009310;28;20049;-71
2021/09/29 13:14:13;;;;;;;12.18;4.57;;;;;;;24.83;19.73;100984.09;4962157;28;20064;-71
2021/09/29 13:16:39;;;;;;;11.27;4.22;;;;;;;24.65;20.20;100986.72;4977553;28;20038;-71
2021/09/29 13:19:12;;;;;;;13.38;5.03;;;;;;;24.53;19.97;100982.13;4961537;28;20506;-71
2021/09/29 13:21:51;;;;;;;20.38;4.88;;;;;;;24.60;20.13;100985.66;4977971;28;20042;-71
2021/09/29 13:36:33;;;;;;;14.02;4.75;;;;;;;23.74;21.19;100999.69;5009716;28;20049;-72
2021/09/29 13:38:01;;;;;;;14.85;4.72;;;;;;;23.73;21.45;100981.69;4998244;28;20042;-71
2021/09/29 13:40:27;;;;;;;17.08;5.50;;;;;;;23.60;21.46;100984.44;5009333;28;20062;-71
2021/09/29 13:42:53;;;;;;;17.23;4.88;;;;;;;23.57;21.57;100987.59;4960880;28;20129;-71
2021/09/29 13:45:18;;;;;;;9.70;4.63;;;;;;;23.48;21.65;100992.38;4976910;28;20096;-71
2021/09/29 13:47:44;;;;;;;12.02;4.47;;;;;;;23.46;21.75;100988.19;4993409;28;20141;-71
2021/09/29 13:50:12;;;;;;;12.27;5.85;;;;;;;23.34;21.94;101000.72;4992388;28;20061;-72
2021/09/29 13:52:40;;;;;;;16.95;5.55;;;;;;;23.26;22.46;100994.44;5009873;28;20062;-71
2021/09/29 13:55:10;;;;;;;9.93;5.15;;;;;;;23.23;22.81;100997.53;4993147;28;20163;-71